Time;durP1;ratioP1;P1;durP2;ratioP2;P2;SDS_P1;SDS_P2;PMS_P1;PMS_P2;Temp;Humidity;BMP_temperature;BMP_pressure;BME280_temperature;BME280_humidity;BME280_pressure;Samples;Min_cycle;Max_cycle;Signal;HPM_P1;HPM_P2
2023/06/17 00:00:28;;;;;;;10.30;9.60;;;;;;;16.20;98.20;100351.22;5012393;28;20708;-77
2023/06/17 00:02:54;;;;;;;10.00;9.27;;;;;;;16.14;98.39;100347.06;5012604;28;20260;-77
2023/06/17 00:05:21;;;;;;;9.47;8.77;;;;;;;16.23;99.87;100325.59;5012876;28;20209;-77
2023/06/17 00:07:47;;;;;;;10.70;10.00;;;;;;;16.21;98.38;100335.34;5025906;28;20212;-77
2023/06/17 00:10:14;;;;;;;10.33;9.63;;;;;;;16.12;98.29;100350.69;5031994;28;20224;-79
2023/06/17 00:12:43;;;;;;;11.63;10.73;;;;;;;16.03;97.54;100357.19;5031972;28;20209;-79
2023/06/17 00:15:12;;;;;;;11.27;10.37;;;;;;;15.86;99.03;100350.88;5032174;28;20203;-80
2023/06/17 00:17:44;;;;;;;12.67;11.57;;;;;;;15.86;98.71;100344.75;5032392;28;20211;-79
2023/06/17 00:20:12;;;;;;;11.40;10.70;;;;;;;15.82;99.02;100337.91;5032227;28;20240;-79
2023/06/17 00:22:39;;;;;;;12.00;11.20;;;;;;;15.74;98.62;100334.72;5031803;28;20204;-76
2023/06/17 00:25:06;;;;;;;12.23;11.40;;;;;;;15.70;99.46;100336.63;5032049;28;20202;-77
2023/06/17 00:27:33;;;;;;;12.07;11.20;;;;;;;15.68;98.35;100335.84;5032075;28;20207;-77
2023/06/17 00:30:01;;;;;;;11.30;10.60;;;;;;;15.75;98.29;100346.97;5031802;28;20737;-76
2023/06/17 00:32:27;;;;;;;12.13;11.33;;;;;;;15.78;97.88;100358.25;5032211;28;20411;-76
2023/06/17 00:34:54;;;;;;;12.67;11.63;;;;;;;15.72;98.68;100349.69;5032154;28;20205;-76
2023/06/17 00:37:20;;;;;;;12.60;11.50;;;;;;;15.58;98.77;100339.75;5031749;28;20213;-79
2023/06/17 00:39:47;;;;;;;12.13;11.03;;;;;;;15.58;98.40;100345.00;5031497;28;20711;-80
2023/06/17 00:42:13;;;;;;;11.60;10.80;;;;;;;15.59;98.96;100330.94;5031716;28;20215;-77
2023/06/17 00:44:40;;;;;;;11.27;10.57;;;;;;;15.57;98.93;100331.00;5031767;28;20216;-77
2023/06/17 00:47:09;;;;;;;11.47;10.73;;;;;;;15.59;99.48;100326.53;5032748;28;20208;-78
2023/06/17 00:49:37;;;;;;;12.53;11.53;;;;;;;15.50;100.00;100308.50;5031660;28;20212;-79
2023/06/17 00:52:05;;;;;;;10.80;9.97;;;;;;;15.53;100.00;100291.75;5031859;28;20266;-79
2023/06/17 00:54:31;;;;;;;11.30;10.47;;;;;;;15.57;100.00;100295.94;5031520;28;20295;-79
2023/06/17 00:57:01;;;;;;;11.70;10.87;;;;;;;15.54;100.00;100288.16;5035104;28;20261;-79
2023/06/17 00:59:27;;;;;;;11.97;11.00;;;;;;;15.61;100.00;100276.47;5035798;28;20712;-80
2023/06/17 01:01:54;;;;;;;12.73;11.83;;;;;;;15.54;100.00;100293.44;5036295;28;20229;-77
2023/06/17 01:04:22;;;;;;;11.90;10.90;;;;;;;15.61;100.00;100289.63;5036177;28;20208;-80
2023/06/17 01:06:55;;;;;;;14.93;12.13;;;;;;;15.61;100.00;100293.13;5036295;28;20224;-80
2023/06/17 01:09:28;;;;;;;10.83;9.97;;;;;;;15.65;99.00;100318.38;5035554;28;20205;-80
2023/06/17 01:11:57;;;;;;;10.77;9.83;;;;;;;15.72;99.51;100303.19;5036049;28;20205;-79
2023/06/17 01:14:25;;;;;;;10.40;9.70;;;;;;;15.69;98.64;100327.84;5035888;28;20209;-80
2023/06/17 01:16:54;;;;;;;13.00;10.60;;;;;;;15.58;96.29;100348.50;5036012;28;20683;-80
2023/06/17 01:19:25;;;;;;;10.80;10.00;;;;;;;15.51;97.16;100351.44;5035880;28;20215;-80
2023/06/17 01:21:53;;;;;;;11.40;10.63;;;;;;;15.42;96.56;100357.94;5036516;28;20257;-80
2023/06/17 01:24:27;;;;;;;10.67;9.97;;;;;;;15.41;95.59;100353.59;5036037;28;20200;-79
2023/06/17 01:26:56;;;;;;;10.57;9.87;;;;;;;15.51;95.08;100383.03;5035790;28;20208;-79
2023/06/17 01:29:23;;;;;;;10.30;9.60;;;;;;;15.74;98.11;100345.25;5035371;28;20222;-79
2023/06/17 01:31:51;;;;;;;9.53;8.90;;;;;;;15.79;97.93;100330.13;5035168;28;20206;-79
2023/06/17 01:34:23;;;;;;;11.90;9.83;;;;;;;15.77;97.23;100351.25;5034681;28;20217;-79
2023/06/17 01:36:53;;;;;;;10.83;10.03;;;;;;;15.68;95.34;100363.00;5035267;28;20215;-79
2023/06/17 01:39:24;;;;;;;10.10;9.40;;;;;;;15.59;94.85;100388.81;5035121;28;20254;-78
2023/06/17 01:41:55;;;;;;;10.10;9.40;;;;;;;15.34;94.30;100396.84;5015271;28;20324;-79
2023/06/17 01:44:23;;;;;;;10.77;10.07;;;;;;;15.21;94.28;100399.94;5015063;28;20212;-79
2023/06/17 01:46:50;;;;;;;11.07;10.33;;;;;;;15.28;94.25;100388.28;5015036;28;20252;-79
2023/06/17 01:49:16;;;;;;;10.70;9.90;;;;;;;15.34;94.26;100405.59;5015184;28;20213;-79
2023/06/17 01:51:42;;;;;;;11.90;10.90;;;;;;;15.29;93.99;100407.53;5015012;28;20258;-79
2023/06/17 01:54:09;;;;;;;10.90;10.20;;;;;;;15.33;93.36;100414.41;5015012;28;20207;-79
2023/06/17 01:56:36;;;;;;;10.40;9.57;;;;;;;15.37;93.11;100421.25;5015014;28;20335;-79
2023/06/17 01:59:04;;;;;;;10.83;10.00;;;;;;;15.36;93.05;100424.81;5015220;28;20555;-79
2023/06/17 02:01:30;;;;;;;10.07;9.37;;;;;;;15.38;94.40;100401.06;5014801;28;20229;-79
2023/06/17 02:03:57;;;;;;;10.93;10.10;;;;;;;15.22;93.07;100412.19;5014690;28;20243;-77
2023/06/17 02:06:24;;;;;;;11.30;10.30;;;;;;;15.08;93.32;100409.22;5016395;28;20750;-77
2023/06/17 02:08:50;;;;;;;10.97;10.07;;;;;;;15.04;93.12;100412.88;5034453;28;20240;-77
2023/06/17 02:11:16;;;;;;;10.53;9.70;;;;;;;14.99;92.91;100409.59;5034262;28;20717;-76
2023/06/17 02:13:43;;;;;;;10.13;9.40;;;;;;;15.06;93.57;100392.66;5034200;28;20212;-77
2023/06/17 02:16:10;;;;;;;11.00;10.07;;;;;;;15.00;91.20;100430.53;5034210;28;20211;-77
2023/06/17 02:18:37;;;;;;;9.97;9.37;;;;;;;15.02;90.98;100431.31;5034096;28;20683;-77
2023/06/17 02:21:04;;;;;;;10.23;9.47;;;;;;;15.06;90.97;100438.22;5033972;28;20776;-79
2023/06/17 02:23:30;;;;;;;11.67;9.67;;;;;;;15.00;91.15;100454.19;5034234;28;20213;-79
2023/06/17 02:25:57;;;;;;;10.20;9.50;;;;;;;14.93;90.89;100450.09;5034185;28;20210;-79
2023/06/17 02:28:23;;;;;;;9.83;9.13;;;;;;;15.04;92.84;100426.91;5034182;28;20548;-80
2023/06/17 02:30:50;;;;;;;10.00;9.30;;;;;;;14.90;91.17;100442.31;5034212;28;20219;-79
2023/06/17 02:33:18;;;;;;;10.60;9.80;;;;;;;14.88;92.38;100420.47;5033855;28;20267;-77
2023/06/17 02:35:44;;;;;;;10.20;9.43;;;;;;;14.87;91.29;100426.66;5034044;28;20209;-80
2023/06/17 02:38:13;;;;;;;10.00;9.10;;;;;;;14.75;91.09;100429.75;5033760;28;20208;-79
2023/06/17 02:40:39;;;;;;;10.33;9.60;;;;;;;14.84;91.59;100429.38;5033577;28;20226;-77
2023/06/17 02:43:06;;;;;;;10.77;9.97;;;;;;;14.96;92.45;100421.03;5033444;28;20265;-79
2023/06/17 02:45:32;;;;;;;10.63;9.93;;;;;;;15.09;92.15;100417.06;5033822;28;20610;-79
2023/06/17 02:47:58;;;;;;;9.50;8.43;;;;;;;15.07;92.32;100402.25;5033814;28;20215;-79
2023/06/17 02:50:26;;;;;;;9.33;8.40;;;;;;;15.14;92.14;100416.00;5033619;28;20273;-77
2023/06/17 02:52:55;;;;;;;10.17;9.37;;;;;;;15.05;91.33;100435.63;5033374;28;20602;-76
2023/06/17 02:55:22;;;;;;;10.40;9.70;;;;;;;14.74;90.66;100457.78;5033618;28;20257;-77
2023/06/17 02:57:48;;;;;;;10.27;9.53;;;;;;;14.62;92.03;100437.19;5034235;28;20592;-77
2023/06/17 03:00:15;;;;;;;10.03;9.33;;;;;;;14.47;93.61;100410.53;5033800;28;20289;-77
2023/06/17 03:02:42;;;;;;;11.63;10.57;;;;;;;14.29;94.21;100380.53;5033534;28;20220;-79
2023/06/17 03:05:10;;;;;;;11.70;11.00;;;;;;;14.30;95.01;100371.72;5033715;28;20273;-79
2023/06/17 03:07:40;;;;;;;11.70;10.70;;;;;;;14.32;96.00;100348.06;5033343;28;20661;-79
2023/06/17 03:10:07;;;;;;;10.97;9.97;;;;;;;14.23;96.74;100328.25;5033011;28;20309;-79
2023/06/17 03:12:34;;;;;;;10.97;10.17;;;;;;;14.04;97.05;100317.53;5033426;28;20235;-79
2023/06/17 03:15:00;;;;;;;12.03;11.07;;;;;;;14.00;98.35;100294.09;5033747;28;20246;-79
2023/06/17 03:17:28;;;;;;;11.10;10.17;;;;;;;13.98;98.82;100281.00;5033120;28;20561;-79
2023/06/17 03:19:56;;;;;;;12.97;11.73;;;;;;;13.93;99.40;100271.59;5032930;28;20249;-79
2023/06/17 03:22:23;;;;;;;11.60;10.80;;;;;;;13.91;99.67;100271.63;5033415;28;20871;-79
2023/06/17 03:24:50;;;;;;;13.43;11.70;;;;;;;13.93;99.86;100261.09;5032993;28;20210;-79
2023/06/17 03:27:17;;;;;;;12.87;11.90;;;;;;;13.94;99.83;100254.94;5033398;28;20213;-79
2023/06/17 03:29:43;;;;;;;12.83;11.83;;;;;;;13.92;99.60;100265.50;5033201;28;20220;-79
2023/06/17 03:32:09;;;;;;;12.73;11.80;;;;;;;13.85;99.57;100253.47;5032905;28;20276;-79
2023/06/17 03:34:36;;;;;;;12.20;11.40;;;;;;;13.75;99.97;100255.56;5032857;28;20291;-79
2023/06/17 03:37:02;;;;;;;13.53;12.43;;;;;;;13.78;99.29;100263.34;5032967;28;20210;-79
2023/06/17 03:39:29;;;;;;;12.53;11.53;;;;;;;13.86;99.83;100255.22;5032473;28;20241;-79
2023/06/17 03:41:56;;;;;;;11.60;10.90;;;;;;;14.02;100.00;100250.28;5032765;28;20226;-77
2023/06/17 03:44:23;;;;;;;12.37;11.20;;;;;;;14.01;98.29;100272.16;5033063;28;20206;-77
2023/06/17 03:46:49;;;;;;;11.67;10.70;;;;;;;13.94;98.51;100279.41;5033020;28;20210;-77
2023/06/17 03:49:16;;;;;;;11.90;10.90;;;;;;;13.90;98.53;100281.28;5032926;28;20252;-77
2023/06/17 03:51:42;;;;;;;12.27;11.37;;;;;;;13.95;98.13;100288.13;5034262;28;20300;-79
2023/06/17 03:54:08;;;;;;;12.93;11.87;;;;;;;13.99;98.31;100295.84;5031993;28;20244;-79
2023/06/17 03:56:35;;;;;;;12.10;11.30;;;;;;;13.95;97.29;100303.88;5032625;28;20264;-77
2023/06/17 03:59:03;;;;;;;12.70;11.70;;;;;;;13.97;96.97;100321.28;5032478;28;20226;-79
2023/06/17 04:01:30;;;;;;;12.30;11.33;;;;;;;14.14;98.11;100309.34;5032420;28;20241;-79
2023/06/17 04:03:56;;;;;;;12.37;11.27;;;;;;;14.09;96.47;100322.59;5032099;28;20218;-79
2023/06/17 04:06:23;;;;;;;11.30;10.50;;;;;;;14.15;95.71;100343.38;5031984;28;20260;-79
2023/06/17 04:08:49;;;;;;;11.70;10.80;;;;;;;14.21;95.60;100348.44;5032287;28;20206;-78
2023/06/17 04:11:16;;;;;;;12.13;11.30;;;;;;;14.28;94.79;100356.97;5032228;28;20226;-79
2023/06/17 04:13:42;;;;;;;12.27;10.97;;;;;;;14.37;93.93;100382.00;5031997;28;20677;-79
2023/06/17 04:16:10;;;;;;;12.27;11.27;;;;;;;14.41;93.91;100391.50;5031941;28;20630;-79
2023/06/17 04:18:36;;;;;;;11.27;10.47;;;;;;;14.37;94.33;100395.16;5031893;28;20206;-79
2023/06/17 04:21:05;;;;;;;11.90;11.07;;;;;;;14.43;93.78;100401.06;5031722;28;20231;-79
2023/06/17 04:23:31;;;;;;;11.50;10.60;;;;;;;14.32;nan;100404.97;5031797;28;20207;-79
2023/06/17 04:25:58;;;;;;;12.83;11.83;;;;;;;14.25;95.45;100386.81;5032239;28;20202;-79
2023/06/17 04:28:24;;;;;;;12.37;11.37;;;;;;;14.29;96.70;100358.66;5032220;28;20209;-79
2023/06/17 04:30:52;;;;;;;12.33;11.40;;;;;;;14.36;95.42;100361.94;5032006;28;20256;-79
2023/06/17 04:33:23;;;;;;;13.17;12.17;;;;;;;14.35;95.74;100354.97;5031823;28;20236;-79
2023/06/17 04:35:51;;;;;;;12.73;11.73;;;;;;;14.32;95.29;100349.84;5032018;28;20214;-78
2023/06/17 04:38:19;;;;;;;12.73;11.73;;;;;;;14.39;96.54;100336.44;5029970;28;20304;-79
2023/06/17 04:40:46;;;;;;;12.40;11.50;;;;;;;14.33;95.58;100347.16;5031474;28;20240;-78
2023/06/17 04:43:12;;;;;;;12.47;11.60;;;;;;;14.31;95.68;100354.22;5031474;28;20318;-79
2023/06/17 04:45:39;;;;;;;12.70;11.77;;;;;;;14.25;96.87;100336.94;5031582;28;20209;-79
2023/06/17 04:48:06;;;;;;;12.53;11.53;;;;;;;14.34;97.38;100327.84;5031979;28;20255;-79
2023/06/17 04:50:35;;;;;;;12.30;11.47;;;;;;;14.22;97.20;100326.53;5052860;23;20628;-83
2023/06/17 04:53:03;;;;;;;13.60;12.60;;;;;;;14.20;98.05;100309.13;5031896;28;20215;-84
2023/06/17 04:55:30;;;;;;;12.93;11.70;;;;;;;14.34;97.86;100298.97;5034170;28;20214;-85
2023/06/17 04:57:56;;;;;;;13.57;12.30;;;;;;;14.39;97.61;100309.28;5033961;28;20207;-85
2023/06/17 05:00:23;;;;;;;14.70;13.47;;;;;;;14.43;97.75;100316.13;5034220;28;20258;-84
2023/06/17 05:02:50;;;;;;;13.73;12.43;;;;;;;14.36;99.19;100302.38;5033446;28;20721;-84
2023/06/17 05:05:16;;;;;;;14.60;13.27;;;;;;;14.44;99.61;100291.59;5034564;28;20212;-84
2023/06/17 05:07:44;;;;;;;15.47;14.27;;;;;;;14.36;100.00;100263.00;5035051;28;20206;-84
2023/06/17 05:10:10;;;;;;;15.57;14.57;;;;;;;14.36;100.00;100238.53;5032200;28;20203;-83
2023/06/17 05:12:37;;;;;;;16.63;15.00;;;;;;;14.36;100.00;100209.63;5033388;28;20540;-82
2023/06/17 05:15:04;;;;;;;17.20;15.80;;;;;;;14.48;100.00;100201.28;5032676;28;20237;-84
2023/06/17 05:17:30;;;;;;;17.03;15.77;;;;;;;14.57;100.00;100198.34;5032755;28;20275;-84
2023/06/17 05:19:56;;;;;;;16.10;14.93;;;;;;;14.82;100.00;100203.44;5035360;28;20219;-84
2023/06/17 05:22:23;;;;;;;17.93;16.30;;;;;;;14.87;100.00;100225.16;5034756;28;20706;-85
2023/06/17 05:24:50;;;;;;;17.63;15.97;;;;;;;15.13;100.00;100228.50;5035877;28;20210;-84
2023/06/17 05:27:17;;;;;;;17.40;15.93;;;;;;;15.35;100.00;100227.59;5036534;28;20202;-83
2023/06/17 05:29:44;;;;;;;19.53;17.90;;;;;;;15.54;100.00;100228.53;5037029;28;20627;-83
2023/06/17 05:32:10;;;;;;;20.93;19.33;;;;;;;15.66;100.00;100230.63;5036287;28;20266;-84
2023/06/17 05:34:37;;;;;;;21.30;19.27;;;;;;;15.88;100.00;100235.84;5034032;28;20246;-84
2023/06/17 05:37:03;;;;;;;21.63;19.73;;;;;;;15.58;100.00;100253.78;5033261;28;20209;-85
2023/06/17 05:39:30;;;;;;;21.83;19.80;;;;;;;15.62;100.00;100260.63;5033638;28;20265;-83
2023/06/17 05:41:59;;;;;;;22.37;20.20;;;;;;;15.76;100.00;100262.69;5033992;28;20239;-83
2023/06/17 05:44:25;;;;;;;23.63;21.10;;;;;;;15.46;100.00;100254.28;5035676;28;20209;-83
2023/06/17 05:46:51;;;;;;;22.97;20.67;;;;;;;15.53;100.00;100239.13;5037683;28;20218;-82
2023/06/17 05:49:18;;;;;;;28.30;21.90;;;;;;;15.60;100.00;100222.13;5036151;28;20228;-84
2023/06/17 05:51:44;;;;;;;25.53;22.73;;;;;;;15.60;100.00;100228.28;5035917;28;20232;-83
2023/06/17 05:54:11;;;;;;;30.73;23.37;;;;;;;15.74;100.00;100245.25;5035654;28;20204;-83
2023/06/17 05:56:37;;;;;;;25.73;23.23;;;;;;;15.92;100.00;100256.78;5035635;28;20676;-83
2023/06/17 05:59:05;;;;;;;28.57;23.63;;;;;;;15.83;100.00;100277.28;5036667;28;20240;-83
2023/06/17 06:01:32;;;;;;;25.57;22.83;;;;;;;15.75;100.00;100297.81;5036106;28;20243;-84
2023/06/17 06:03:58;;;;;;;27.67;23.60;;;;;;;15.87;100.00;100286.75;5036091;28;20209;-83
2023/06/17 06:06:24;;;;;;;27.03;24.47;;;;;;;15.94;100.00;100303.16;5035951;28;20631;-83
2023/06/17 06:08:51;;;;;;;29.37;23.53;;;;;;;16.04;100.00;100325.53;5035977;28;20601;-80
2023/06/17 06:11:18;;;;;;;30.10;22.83;;;;;;;16.03;99.47;100346.66;5035885;28;20339;-82
2023/06/17 06:13:44;;;;;;;26.73;23.90;;;;;;;15.88;100.00;100337.66;5036955;28;20213;-83
2023/06/17 06:16:12;;;;;;;27.73;23.97;;;;;;;15.95;98.72;100351.41;5038216;28;20211;-83
2023/06/17 06:18:38;;;;;;;27.03;23.43;;;;;;;15.82;99.62;100354.56;5039748;28;20710;-85
2023/06/17 06:21:05;;;;;;;26.60;23.57;;;;;;;15.92;99.95;100341.88;5040092;28;20220;-83
2023/06/17 06:23:31;;;;;;;27.43;22.40;;;;;;;16.03;99.91;100339.59;5040927;28;20224;-82
2023/06/17 06:25:58;;;;;;;25.07;22.60;;;;;;;16.13;98.75;100355.88;5041419;28;20212;-85
2023/06/17 06:28:24;;;;;;;25.70;23.10;;;;;;;16.18;98.83;100360.94;5041269;28;20263;-85
2023/06/17 06:30:51;;;;;;;26.97;24.00;;;;;;;15.96;98.39;100369.78;5042114;28;20261;-82
2023/06/17 06:33:18;;;;;;;31.77;24.37;;;;;;;15.92;99.14;100369.97;5042998;28;20205;-83
2023/06/17 06:35:45;;;;;;;33.67;24.13;;;;;;;15.79;100.00;100359.09;5044565;28;20205;-83
2023/06/17 06:38:11;;;;;;;26.37;23.77;;;;;;;15.89;100.00;100341.97;5045745;28;20242;-83
2023/06/17 06:40:37;;;;;;;27.03;24.13;;;;;;;15.88;100.00;100348.19;5038069;28;20228;-84
2023/06/17 06:43:04;;;;;;;26.83;23.50;;;;;;;16.03;100.00;100342.25;5047278;28;20228;-85
2023/06/17 06:45:30;;;;;;;24.80;22.37;;;;;;;16.11;99.02;100362.97;5046428;28;20267;-84
2023/06/17 06:47:57;;;;;;;26.97;24.27;;;;;;;16.03;98.44;100378.25;5047531;28;20211;-83
2023/06/17 06:50:25;;;;;;;29.70;24.47;;;;;;;15.99;99.16;100382.78;5046839;28;20228;-83
2023/06/17 06:52:51;;;;;;;27.93;23.13;;;;;;;16.15;98.93;100371.59;5044815;28;20729;-83
2023/06/17 06:55:18;;;;;;;24.27;21.97;;;;;;;16.27;97.30;100393.03;5046045;28;20629;-83
2023/06/17 06:57:44;;;;;;;25.90;22.97;;;;;;;16.45;96.33;100408.91;5046614;28;20206;-84
2023/06/17 07:00:12;;;;;;;27.23;23.93;;;;;;;16.35;96.05;100432.22;5046350;28;20312;-82
2023/06/17 07:02:39;;;;;;;25.13;22.77;;;;;;;16.34;93.94;100462.09;5045227;28;20801;-82
2023/06/17 07:05:05;;;;;;;25.60;22.67;;;;;;;16.48;94.88;100454.44;5046132;28;20205;-84
2023/06/17 07:07:33;;;;;;;24.60;22.07;;;;;;;16.52;94.97;100455.16;5045634;28;20221;-82
2023/06/17 07:09:59;;;;;;;26.63;22.43;;;;;;;16.72;95.12;100456.09;5045397;28;20208;-82
2023/06/17 07:12:26;;;;;;;24.30;21.97;;;;;;;16.81;93.73;100466.22;5046130;28;20219;-84
2023/06/17 07:14:52;;;;;;;26.30;23.50;;;;;;;16.58;92.57;100504.97;5046708;28;20208;-83
2023/06/17 07:17:19;;;;;;;26.03;23.50;;;;;;;16.49;94.76;100484.31;5048970;28;20212;-83
2023/06/17 07:19:45;;;;;;;25.80;23.37;;;;;;;16.71;nan;100468.41;5046433;28;20742;-84
2023/06/17 07:22:11;;;;;;;27.10;24.20;;;;;;;16.65;92.09;100509.06;5042182;28;20694;-83
2023/06/17 07:24:39;;;;;;;24.40;22.10;;;;;;;16.79;91.86;100520.81;5041529;28;20291;-84
2023/06/17 07:27:05;;;;;;;25.63;22.97;;;;;;;16.92;90.35;100542.25;5049350;28;20271;-83
2023/06/17 07:29:32;;;;;;;23.77;21.17;;;;;;;17.01;89.83;100562.94;5048948;28;20204;-81
2023/06/17 07:31:58;;;;;;;24.77;22.23;;;;;;;17.07;88.88;100581.97;5043764;28;20224;-82
2023/06/17 07:34:24;;;;;;;22.83;20.67;;;;;;;17.26;88.92;100575.88;5045021;28;20235;-81
2023/06/17 07:36:52;;;;;;;23.97;21.90;;;;;;;17.12;88.18;100594.97;5046249;28;20398;-84
2023/06/17 07:39:19;;;;;;;24.70;22.50;;;;;;;17.04;88.17;100608.47;5047397;28;20212;-84
2023/06/17 07:41:47;;;;;;;24.57;22.13;;;;;;;16.95;88.89;100597.50;5048092;28;20325;-84
2023/06/17 07:44:13;;;;;;;23.10;21.10;;;;;;;17.07;88.67;100594.31;5045908;28;20233;-83
2023/06/17 07:46:41;;;;;;;22.73;20.83;;;;;;;17.18;88.50;100599.97;5044133;28;20291;-84
2023/06/17 07:49:09;;;;;;;22.87;20.63;;;;;;;17.33;87.88;100601.09;5045323;28;20235;-85
2023/06/17 07:51:36;;;;;;;25.03;22.37;;;;;;;17.17;87.46;100622.00;5045856;28;20319;-85
2023/06/17 07:54:04;;;;;;;24.77;22.30;;;;;;;17.27;89.46;100601.34;5044363;28;20201;-82
2023/06/17 07:56:31;;;;;;;23.97;21.87;;;;;;;17.26;88.26;100597.88;5044852;28;20214;-85
2023/06/17 07:59:06;;;;;;;25.73;22.03;;;;;;;17.11;88.78;100600.31;5045051;28;20238;-85
2023/06/17 08:01:37;;;;;;;23.20;21.20;;;;;;;17.28;87.58;100600.41;5045245;28;20259;-85
2023/06/17 08:04:06;;;;;;;26.17;23.43;;;;;;;17.34;88.28;100584.31;5045727;28;20249;-85
2023/06/17 08:06:40;;;;;;;24.43;22.23;;;;;;;17.32;89.18;100574.75;5044597;28;20210;-85
2023/06/17 08:09:10;;;;;;;23.03;21.07;;;;;;;17.29;88.06;100590.75;5043217;28;20231;-85
2023/06/17 08:11:39;;;;;;;22.47;20.80;;;;;;;17.48;86.50;100615.34;5043323;28;20283;-85
2023/06/17 08:14:11;;;;;;;22.90;20.90;;;;;;;17.60;86.25;100619.22;5044561;28;20220;-85
2023/06/17 08:16:43;;;;;;;22.50;20.43;;;;;;;17.78;84.95;100636.00;5045451;28;20209;-85
2023/06/17 08:19:15;;;;;;;21.73;19.90;;;;;;;17.86;85.47;100645.34;5045003;28;20239;-85
2023/06/17 08:21:45;;;;;;;23.67;21.50;;;;;;;17.73;84.51;100657.34;5045899;28;20298;-85
2023/06/17 08:24:18;;;;;;;22.87;20.87;;;;;;;17.58;85.54;100652.75;5050061;28;20292;-86
2023/06/17 08:26:51;;;;;;;24.17;21.93;;;;;;;17.52;86.64;100627.53;5056853;28;20229;-86
2023/06/17 08:29:20;;;;;;;22.53;20.60;;;;;;;17.65;85.52;100633.09;5056055;28;20203;-81
2023/06/17 08:31:49;;;;;;;24.37;22.17;;;;;;;17.49;87.07;100626.78;5050816;28;20224;-83
2023/06/17 08:34:21;;;;;;;23.87;21.57;;;;;;;17.66;87.36;100584.66;5035293;28;20252;-82
2023/06/17 08:36:52;;;;;;;23.40;21.27;;;;;;;17.78;87.25;100583.22;5035298;28;20698;-82
2023/06/17 08:39:26;;;;;;;22.97;20.97;;;;;;;17.98;86.89;100577.91;5034755;28;20245;-83
2023/06/17 08:41:54;;;;;;;22.70;20.80;;;;;;;18.17;85.19;100603.44;5034628;28;20229;-84
2023/06/17 08:44:26;;;;;;;23.53;21.53;;;;;;;18.18;83.13;100653.56;5034401;28;20283;-81
2023/06/17 08:46:56;;;;;;;22.93;21.23;;;;;;;18.17;83.79;100664.19;5035077;28;20224;-82
2023/06/17 08:49:29;;;;;;;22.53;20.33;;;;;;;18.30;83.32;100672.41;5034870;28;20635;-81
2023/06/17 08:51:56;;;;;;;24.67;22.30;;;;;;;18.02;83.42;100693.03;5033873;28;20239;-83
2023/06/17 08:54:25;;;;;;;23.00;20.80;;;;;;;17.84;86.05;100654.28;5035662;28;20205;-80
2023/06/17 08:56:53;;;;;;;22.97;21.17;;;;;;;17.94;86.94;100613.31;5036748;28;20221;-80
2023/06/17 08:59:19;;;;;;;23.60;21.80;;;;;;;18.08;86.30;100617.06;5034920;28;20217;-81
2023/06/17 09:01:52;;;;;;;24.80;22.57;;;;;;;18.05;85.36;100629.47;5035431;28;20283;-84
2023/06/17 09:04:21;;;;;;;22.73;20.67;;;;;;;18.29;84.01;100631.91;5037507;28;20279;-82
2023/06/17 09:06:51;;;;;;;22.60;20.60;;;;;;;18.22;84.29;100655.13;5035195;28;20680;-82
2023/06/17 09:09:21;;;;;;;22.83;20.90;;;;;;;18.16;84.34;100638.72;5036366;28;20236;-81
2023/06/17 09:11:53;;;;;;;22.57;20.73;;;;;;;18.04;84.52;100637.50;5036027;28;20260;-80
2023/06/17 09:14:25;;;;;;;22.57;20.50;;;;;;;18.29;84.88;100628.41;5037090;28;20276;-82
2023/06/17 09:16:55;;;;;;;23.57;21.63;;;;;;;18.33;83.63;100644.03;5038034;28;20809;-81
2023/06/17 09:19:29;;;;;;;22.63;20.63;;;;;;;18.35;83.77;100662.47;5041097;28;20706;-81
2023/06/17 09:22:04;;;;;;;22.27;20.37;;;;;;;18.36;82.85;100661.56;5041304;28;20232;-83
2023/06/17 09:24:30;;;;;;;23.80;21.47;;;;;;;18.36;83.56;100677.41;5040159;28;20714;-80
2023/06/17 09:27:00;;;;;;;21.20;19.37;;;;;;;18.51;84.65;100641.44;5038811;28;20296;-82
2023/06/17 09:29:29;;;;;;;21.67;20.17;;;;;;;18.68;82.29;100662.63;5038329;28;20210;-79
2023/06/17 09:31:57;;;;;;;23.33;20.93;;;;;;;18.74;81.91;100682.63;5037143;28;20708;-81
2023/06/17 09:34:26;;;;;;;21.80;19.90;;;;;;;18.80;81.98;100683.19;5036832;28;20205;-81
2023/06/17 09:36:59;;;;;;;22.53;20.50;;;;;;;18.91;81.22;100705.63;5036940;28;20285;-81
2023/06/17 09:39:30;;;;;;;23.50;21.53;;;;;;;19.10;81.56;100694.97;5036629;28;20210;-80
2023/06/17 09:42:12;;;;;;;22.47;20.47;;;;;;;19.15;80.03;100719.44;5036880;28;20308;-81
2023/06/17 09:44:46;;;;;;;22.27;20.23;;;;;;;19.21;82.11;100708.53;5036765;28;20652;-83
2023/06/17 09:47:22;;;;;;;21.53;19.93;;;;;;;19.24;78.83;100734.84;5037026;28;20738;-81
2023/06/17 09:49:49;;;;;;;21.03;19.37;;;;;;;19.00;79.13;100753.63;5036611;28;20288;-81
2023/06/17 09:52:20;;;;;;;22.87;21.13;;;;;;;18.96;80.36;100744.16;5036279;28;20234;-81
2023/06/17 09:54:52;;;;;;;21.60;19.97;;;;;;;18.99;80.93;100719.34;5035649;28;20209;-81
2023/06/17 09:57:21;;;;;;;22.77;20.77;;;;;;;19.20;80.96;100701.53;5037465;28;20205;-82
2023/06/17 09:59:56;;;;;;;22.67;20.73;;;;;;;19.43;79.98;100708.28;5036780;28;20206;-83
2023/06/17 10:02:24;;;;;;;21.27;19.57;;;;;;;19.52;78.41;100728.97;5037560;28;20226;-81
2023/06/17 10:04:56;;;;;;;21.90;20.10;;;;;;;19.61;77.47;100765.59;5035666;28;20210;-82
2023/06/17 10:07:27;;;;;;;21.80;20.10;;;;;;;19.76;77.60;100776.34;5036438;28;20263;-80
2023/06/17 10:10:00;;;;;;;20.97;19.27;;;;;;;19.75;78.35;100751.66;5037003;28;20248;-81
2023/06/17 10:12:30;;;;;;;19.83;18.17;;;;;;;19.82;78.06;100770.72;5036960;28;20226;-81
2023/06/17 10:15:01;;;;;;;21.80;19.93;;;;;;;19.96;77.16;100775.31;5036531;28;20627;-81
2023/06/17 10:17:34;;;;;;;20.20;18.30;;;;;;;19.93;77.21;100778.97;5036183;28;20202;-81
2023/06/17 10:20:05;;;;;;;20.90;19.40;;;;;;;19.60;75.89;100815.97;5037324;28;20571;-80
2023/06/17 10:22:32;;;;;;;21.13;19.53;;;;;;;19.53;77.14;100804.84;5034606;28;20776;-82
2023/06/17 10:24:58;;;;;;;22.17;20.27;;;;;;;19.72;78.93;100764.22;5037362;28;20205;-83
2023/06/17 10:27:25;;;;;;;23.07;20.83;;;;;;;19.57;76.44;100790.53;5036799;28;20216;-81
2023/06/17 10:29:51;;;;;;;21.53;19.83;;;;;;;19.79;77.92;100766.47;5036646;28;20202;-81
2023/06/17 10:32:19;;;;;;;20.70;19.03;;;;;;;19.90;77.16;100768.56;5036266;28;20715;-81
2023/06/17 10:35:10;;;;;;;19.93;18.23;;;;;;;20.02;77.58;100775.00;5036743;28;20206;-81
2023/06/17 10:37:48;;;;;;;19.67;18.03;;;;;;;20.17;77.91;100760.06;5036054;28;20202;-81
2023/06/17 10:40:24;;;;;;;18.40;17.00;;;;;;;20.35;75.34;100779.44;5032675;28;20214;-81
2023/06/17 10:42:57;;;;;;;19.47;17.87;;;;;;;20.42;74.83;100818.78;5038158;28;20205;-81
2023/06/17 10:45:28;;;;;;;20.47;18.80;;;;;;;20.60;74.46;100816.97;5037313;28;20214;-82
2023/06/17 10:48:17;;;;;;;20.57;18.70;;;;;;;20.74;73.19;100848.03;5037645;28;20213;-84
2023/06/17 10:50:52;;;;;;;19.77;18.27;;;;;;;20.77;73.92;100863.81;5040942;28;20242;-79
2023/06/17 10:55:51;;;;;;;18.90;17.37;;;;;;;20.58;71.75;100894.88;5058811;23;20245;-80
2023/06/17 10:58:21;;;;;;;19.00;17.63;;;;;;;20.77;72.10;100882.38;5039422;28;20210;-80
2023/06/17 11:01:09;;;;;;;18.57;17.33;;;;;;;20.97;73.08;100873.31;5042302;28;20210;-79
2023/06/17 11:03:39;;;;;;;18.80;17.37;;;;;;;21.23;73.04;100839.97;5038619;28;20232;-79
2023/06/17 11:06:13;;;;;;;18.47;17.03;;;;;;;21.31;71.34;100870.56;5040330;28;20205;-79
2023/06/17 11:08:42;;;;;;;20.67;19.20;;;;;;;20.92;68.90;100941.69;5047768;28;20220;-80
2023/06/17 11:11:10;;;;;;;20.63;19.07;;;;;;;20.99;71.09;100915.66;5049815;28;20241;-80
2023/06/17 11:13:47;;;;;;;18.77;17.27;;;;;;;21.16;70.19;100870.47;5049091;28;20212;-81
2023/06/17 11:16:13;;;;;;;19.23;17.87;;;;;;;21.30;69.12;100937.88;5051173;28;20210;-80